Time;durP1;ratioP1;P1;durP2;ratioP2;P2;SDS_P1;SDS_P2;PMS_P1;PMS_P2;Temp;Humidity;BMP_temperature;BMP_pressure;BME280_temperature;BME280_humidity;BME280_pressure;Samples;Min_cycle;Max_cycle;Signal;HPM_P1;HPM_P2
2021/01/08 00:01:44;;;;;;;5.15;1.17;;;;;;;;;;5002091;28;20046;-66
2021/01/08 00:04:10;;;;;;;1.98;0.98;;;;;;;;;;5002419;28;20121;-67
2021/01/08 00:06:36;;;;;;;1.75;1.20;;;;;;;;;;5000133;28;21617;-66
2021/01/08 00:09:03;;;;;;;3.20;1.20;;;;;;;;;;5001134;28;20390;-68
2021/01/08 00:11:29;;;;;;;3.83;0.93;;;;;;;;;;5002231;28;20038;-65
2021/01/08 00:13:56;;;;;;;1.38;0.88;;;;;;;;;;5002300;28;20034;-68
2021/01/08 00:16:22;;;;;;;2.10;1.30;;;;;;;;;;5002288;28;20120;-67
2021/01/08 00:18:48;;;;;;;1.67;0.95;;;;;;;;;;5000423;28;20098;-68
2021/01/08 00:21:15;;;;;;;1.52;1.00;;;;;;;;;;5002530;28;20034;-69
2021/01/08 00:23:41;;;;;;;1.88;0.98;;;;;;;;;;5002770;28;20042;-69
2021/01/08 00:26:07;;;;;;;1.50;0.95;;;;;;;;;;5001257;28;20407;-69
2021/01/08 00:28:34;;;;;;;1.17;1.00;;;;;;;;;;5004049;28;20034;-68
2021/01/08 00:31:00;;;;;;;2.08;1.15;;;;;;;;;;5002156;28;20151;-67
2021/01/08 00:33:27;;;;;;;2.83;0.90;;;;;;;;;;5001595;28;20046;-66
2021/01/08 00:35:53;;;;;;;1.38;0.80;;;;;;;;;;5003299;28;20049;-69
2021/01/08 00:38:20;;;;;;;1.88;0.90;;;;;;;;;;5002960;28;20050;-68
2021/01/08 00:40:47;;;;;;;3.25;1.10;;;;;;;;;;5003786;28;20064;-67
2021/01/08 00:43:13;;;;;;;2.00;1.00;;;;;;;;;;5015283;28;20041;-66
2021/01/08 00:45:39;;;;;;;0.90;0.90;;;;;;;;;;5023780;28;20199;-68
2021/01/08 00:48:06;;;;;;;0.90;0.88;;;;;;;;;;5005528;28;20045;-65
2021/01/08 00:50:32;;;;;;;2.70;1.00;;;;;;;;;;5006369;28;20190;-66
2021/01/08 00:52:58;;;;;;;4.38;1.05;;;;;;;;;;5007686;28;20034;-66
2021/01/08 00:55:24;;;;;;;1.08;0.98;;;;;;;;;;5003394;28;20049;-66
2021/01/08 00:57:51;;;;;;;0.60;0.60;;;;;;;;;;5006264;28;20057;-68
2021/01/08 01:00:17;;;;;;;2.25;1.02;;;;;;;;;;5005136;28;20072;-67
2021/01/08 01:02:43;;;;;;;1.02;0.90;;;;;;;;;;5005027;28;20125;-67
2021/01/08 01:05:10;;;;;;;0.77;0.73;;;;;;;;;;5006529;28;20045;-69
2021/01/08 01:07:36;;;;;;;0.70;0.70;;;;;;;;;;5006548;28;20118;-66
2021/01/08 01:10:03;;;;;;;1.50;1.00;;;;;;;;;;5005742;28;20163;-65
2021/01/08 01:12:29;;;;;;;3.17;1.15;;;;;;;;;;5006172;28;20038;-67
2021/01/08 01:14:56;;;;;;;0.98;0.95;;;;;;;;;;5004119;28;20061;-65
2021/01/08 01:17:22;;;;;;;4.22;1.20;;;;;;;;;;5005500;28;20370;-67
2021/01/08 01:19:48;;;;;;;1.27;0.90;;;;;;;;;;5006635;28;20041;-65
2021/01/08 01:22:15;;;;;;;1.60;0.90;;;;;;;;;;5007182;28;20088;-68
2021/01/08 01:24:41;;;;;;;1.40;0.77;;;;;;;;;;5004624;28;20917;-65
2021/01/08 01:27:07;;;;;;;0.75;0.75;;;;;;;;;;5004658;28;20042;-68
2021/01/08 01:29:33;;;;;;;2.17;0.80;;;;;;;;;;5003935;28;20461;-68
2021/01/08 01:32:00;;;;;;;2.03;0.88;;;;;;;;;;5005607;28;20056;-67
2021/01/08 01:34:26;;;;;;;1.02;0.93;;;;;;;;;;5005392;28;20034;-68
2021/01/08 01:36:52;;;;;;;1.33;0.85;;;;;;;;;;5004898;28;20034;-68
2021/01/08 01:39:18;;;;;;;0.82;0.73;;;;;;;;;;5005140;28;20042;-66
2021/01/08 01:41:45;;;;;;;1.10;0.93;;;;;;;;;;5005936;28;20041;-69
2021/01/08 01:44:12;;;;;;;0.95;0.90;;;;;;;;;;5005078;28;20057;-67
2021/01/08 01:46:39;;;;;;;1.13;0.88;;;;;;;;;;5004775;28;20485;-68
2021/01/08 01:49:05;;;;;;;0.93;0.70;;;;;;;;;;5004539;28;20038;-66
2021/01/08 01:51:32;;;;;;;0.98;0.88;;;;;;;;;;5004731;28;20049;-65
2021/01/08 01:53:58;;;;;;;0.85;0.82;;;;;;;;;;5004441;28;20032;-66
2021/01/08 01:56:25;;;;;;;1.35;0.93;;;;;;;;;;5005298;28;20042;-68
2021/01/08 01:58:51;;;;;;;0.80;0.63;;;;;;;;;;5003527;28;20049;-66
2021/01/08 02:01:18;;;;;;;3.40;0.93;;;;;;;;;;5004097;28;20434;-67
2021/01/08 02:03:47;;;;;;;1.20;0.88;;;;;;;;;;5004689;28;20123;-68
2021/01/08 02:06:14;;;;;;;1.38;0.85;;;;;;;;;;5004315;28;20228;-66
2021/01/08 02:08:42;;;;;;;3.40;0.90;;;;;;;;;;5004572;28;20506;-65
2021/01/08 02:11:11;;;;;;;0.70;0.70;;;;;;;;;;5003963;28;20040;-67
2021/01/08 02:13:52;;;;;;;1.55;0.80;;;;;;;;;;5003525;28;20370;-68
2021/01/08 02:16:18;;;;;;;0.85;0.73;;;;;;;;;;5003313;28;21395;-68
2021/01/08 02:18:46;;;;;;;0.75;0.75;;;;;;;;;;5003374;28;20133;-67
2021/01/08 02:21:14;;;;;;;0.98;0.90;;;;;;;;;;5003630;28;20056;-68
2021/01/08 02:23:44;;;;;;;1.17;1.10;;;;;;;;;;5003905;28;20057;-69
2021/01/08 02:26:10;;;;;;;1.40;1.00;;;;;;;;;;5002480;28;20091;-69
2021/01/08 02:28:37;;;;;;;0.80;0.70;;;;;;;;;;5004708;28;20448;-69
2021/01/08 02:31:03;;;;;;;3.80;0.90;;;;;;;;;;5002578;28;20435;-67
2021/01/08 02:33:30;;;;;;;1.67;1.00;;;;;;;;;;5003158;28;20069;-67
2021/01/08 02:35:59;;;;;;;0.80;0.80;;;;;;;;;;5004852;28;20034;-66
2021/01/08 02:38:25;;;;;;;1.55;0.80;;;;;;;;;;5005277;28;20069;-69
2021/01/08 02:40:52;;;;;;;0.70;0.70;;;;;;;;;;5002193;28;20103;-65
2021/01/08 02:43:20;;;;;;;1.15;0.80;;;;;;;;;;5004512;28;20057;-66
2021/01/08 02:45:46;;;;;;;0.80;0.80;;;;;;;;;;5003622;28;20396;-69
2021/01/08 02:48:12;;;;;;;1.33;0.70;;;;;;;;;;5003538;28;20045;-66
2021/01/08 02:50:39;;;;;;;1.00;0.90;;;;;;;;;;5004223;28;20101;-66
2021/01/08 02:53:07;;;;;;;0.63;0.63;;;;;;;;;;5005070;28;20119;-68
2021/01/08 02:55:34;;;;;;;0.70;0.70;;;;;;;;;;5003350;28;20045;-66
2021/01/08 02:58:01;;;;;;;0.65;0.65;;;;;;;;;;5004445;28;20684;-69
2021/01/08 03:00:29;;;;;;;2.15;1.10;;;;;;;;;;5003365;28;20130;-67
2021/01/08 03:02:55;;;;;;;1.48;0.93;;;;;;;;;;5004567;28;20449;-67
2021/01/08 03:05:22;;;;;;;1.17;0.77;;;;;;;;;;5004602;28;20053;-67
2021/01/08 03:07:48;;;;;;;1.00;0.80;;;;;;;;;;5003090;28;20049;-68
2021/01/08 03:10:15;;;;;;;0.75;0.75;;;;;;;;;;5003572;28;20030;-69
2021/01/08 03:12:42;;;;;;;0.98;0.98;;;;;;;;;;5001799;28;20511;-65
2021/01/08 03:15:11;;;;;;;0.60;0.60;;;;;;;;;;5001430;28;20037;-67
2021/01/08 03:17:37;;;;;;;0.80;0.80;;;;;;;;;;5003190;28;20038;-69
2021/01/08 03:20:04;;;;;;;0.93;0.80;;;;;;;;;;5002800;28;20045;-68
2021/01/08 03:22:30;;;;;;;2.20;1.10;;;;;;;;;;5003315;28;20117;-69
2021/01/08 03:24:56;;;;;;;1.33;1.05;;;;;;;;;;5002131;28;20049;-68
2021/01/08 03:27:22;;;;;;;1.17;0.75;;;;;;;;;;5002985;28;20046;-68
2021/01/08 03:29:49;;;;;;;2.10;0.82;;;;;;;;;;5002135;28;20054;-68
2021/01/08 03:32:15;;;;;;;0.95;0.80;;;;;;;;;;5003150;28;20057;-68
2021/01/08 03:34:41;;;;;;;1.00;0.80;;;;;;;;;;5001789;28;20133;-68
2021/01/08 03:37:07;;;;;;;0.85;0.85;;;;;;;;;;5002234;28;21599;-67
2021/01/08 03:39:34;;;;;;;1.55;1.00;;;;;;;;;;5002394;28;20038;-67
2021/01/08 03:42:00;;;;;;;0.85;0.75;;;;;;;;;;5003330;28;20072;-69
2021/01/08 03:44:27;;;;;;;0.95;0.80;;;;;;;;;;5018926;28;20087;-66
2021/01/08 03:46:53;;;;;;;1.10;0.90;;;;;;;;;;5020858;28;20036;-68
2021/01/08 03:49:19;;;;;;;0.70;0.70;;;;;;;;;;5003351;28;20050;-67
2021/01/08 03:51:45;;;;;;;1.65;0.85;;;;;;;;;;5001605;28;20381;-69
2021/01/08 03:54:12;;;;;;;0.77;0.77;;;;;;;;;;5095201;27;20045;-67
2021/01/08 03:56:38;;;;;;;0.80;0.80;;;;;;;;;;5003055;28;20068;-67
2021/01/08 03:59:04;;;;;;;0.85;0.80;;;;;;;;;;5001919;28;20370;-69
2021/01/08 04:01:31;;;;;;;0.65;0.65;;;;;;;;;;5004450;28;20096;-65
2021/01/08 04:03:57;;;;;;;1.02;0.93;;;;;;;;;;5003973;28;20046;-68
2021/01/08 04:06:23;;;;;;;1.10;0.93;;;;;;;;;;5004306;28;20053;-69
2021/01/08 04:08:49;;;;;;;1.77;0.82;;;;;;;;;;5004107;28;20103;-66
2021/01/08 04:11:16;;;;;;;0.80;0.80;;;;;;;;;;5003092;28;20034;-68
2021/01/08 04:13:42;;;;;;;0.73;0.73;;;;;;;;;;5004097;28;20071;-69
2021/01/08 04:16:08;;;;;;;1.13;0.88;;;;;;;;;;5002190;28;20042;-68
2021/01/08 04:18:34;;;;;;;0.82;0.82;;;;;;;;;;5004225;28;20053;-68
2021/01/08 04:21:01;;;;;;;0.60;0.60;;;;;;;;;;5005840;28;20041;-68
2021/01/08 04:23:27;;;;;;;1.23;0.80;;;;;;;;;;5007725;28;20046;-68
2021/01/08 04:25:53;;;;;;;0.70;0.70;;;;;;;;;;5006204;28;20045;-69
2021/01/08 04:28:19;;;;;;;0.80;0.70;;;;;;;;;;5007640;28;20038;-68
2021/01/08 04:30:46;;;;;;;0.80;0.80;;;;;;;;;;5006636;28;20053;-68
2021/01/08 04:33:12;;;;;;;1.30;0.90;;;;;;;;;;5007046;28;20095;-68
2021/01/08 04:35:38;;;;;;;0.80;0.80;;;;;;;;;;5007438;28;20122;-69
2021/01/08 04:38:04;;;;;;;0.68;0.68;;;;;;;;;;5006830;28;20038;-69
2021/01/08 04:40:31;;;;;;;0.70;0.70;;;;;;;;;;5005913;28;20053;-67
2021/01/08 04:42:57;;;;;;;0.77;0.77;;;;;;;;;;5007175;28;21421;-64
2021/01/08 04:45:24;;;;;;;0.70;0.70;;;;;;;;;;5005939;28;20061;-67
2021/01/08 04:47:51;;;;;;;0.93;0.90;;;;;;;;;;5005171;28;20099;-67
2021/01/08 04:50:18;;;;;;;1.00;0.80;;;;;;;;;;5006975;28;20053;-67
2021/01/08 04:52:46;;;;;;;1.10;0.70;;;;;;;;;;5005446;28;21458;-64
2021/01/08 04:55:13;;;;;;;1.10;0.80;;;;;;;;;;5005560;28;20145;-68
2021/01/08 04:57:40;;;;;;;0.93;0.85;;;;;;;;;;5007984;28;20042;-67
2021/01/08 05:00:06;;;;;;;1.10;0.90;;;;;;;;;;5005299;28;20080;-67
2021/01/08 05:02:33;;;;;;;1.13;0.88;;;;;;;;;;5007022;28;20042;-67
2021/01/08 05:04:59;;;;;;;1.20;0.80;;;;;;;;;;5006867;28;20069;-65
2021/01/08 05:07:26;;;;;;;1.10;1.00;;;;;;;;;;5006257;28;20038;-67
2021/01/08 05:09:52;;;;;;;0.95;0.80;;;;;;;;;;5005483;28;20045;-69
2021/01/08 05:12:18;;;;;;;1.50;0.70;;;;;;;;;;5006328;28;20042;-66
2021/01/08 05:14:45;;;;;;;1.63;0.88;;;;;;;;;;5005059;28;20120;-67
2021/01/08 05:17:11;;;;;;;0.60;0.60;;;;;;;;;;5005922;28;20060;-68
2021/01/08 05:19:38;;;;;;;1.00;0.70;;;;;;;;;;5006059;28;20046;-66
2021/01/08 05:22:04;;;;;;;0.85;0.85;;;;;;;;;;5006298;28;20155;-65
2021/01/08 05:24:31;;;;;;;0.95;0.80;;;;;;;;;;5006221;28;20141;-67
2021/01/08 05:27:01;;;;;;;1.05;0.85;;;;;;;;;;5006706;28;20225;-67
2021/01/08 05:29:28;;;;;;;1.10;0.80;;;;;;;;;;5005283;28;20042;-67
2021/01/08 05:31:55;;;;;;;0.68;0.68;;;;;;;;;;5005932;28;20037;-67
2021/01/08 05:34:27;;;;;;;1.55;0.73;;;;;;;;;;5005639;28;20042;-66
2021/01/08 05:36:53;;;;;;;0.70;0.70;;;;;;;;;;5005204;28;20458;-65
2021/01/08 05:39:21;;;;;;;0.73;0.73;;;;;;;;;;5006168;28;20076;-67
2021/01/08 05:41:47;;;;;;;2.25;0.98;;;;;;;;;;5005681;28;20057;-67
2021/01/08 05:44:15;;;;;;;0.60;0.60;;;;;;;;;;5005144;28;20061;-64
2021/01/08 05:46:42;;;;;;;0.65;0.63;;;;;;;;;;5004141;28;20412;-65
2021/01/08 05:49:08;;;;;;;0.68;0.68;;;;;;;;;;5005911;28;20192;-66
2021/01/08 05:51:37;;;;;;;0.80;0.80;;;;;;;;;;5005822;28;20069;-68
2021/01/08 05:54:04;;;;;;;0.70;0.70;;;;;;;;;;5006987;28;20045;-69
2021/01/08 05:56:37;;;;;;;0.75;0.75;;;;;;;;;;5005095;28;20045;-68
2021/01/08 05:59:05;;;;;;;0.90;0.68;;;;;;;;;;5003788;28;20091;-67
2021/01/08 06:01:32;;;;;;;0.80;0.80;;;;;;;;;;5003739;28;20038;-65
2021/01/08 06:03:59;;;;;;;0.95;0.80;;;;;;;;;;5005196;28;20049;-69
2021/01/08 06:06:25;;;;;;;0.77;0.77;;;;;;;;;;5005780;28;20056;-68
2021/01/08 06:08:53;;;;;;;0.73;0.73;;;;;;;;;;5006438;28;20036;-67
2021/01/08 06:11:21;;;;;;;0.70;0.70;;;;;;;;;;5002883;28;20063;-68
2021/01/08 06:13:51;;;;;;;1.50;0.70;;;;;;;;;;5021526;28;20258;-66
2021/01/08 06:16:19;;;;;;;0.82;0.70;;;;;;;;;;5012848;28;20046;-68
2021/01/08 06:18:46;;;;;;;2.45;0.80;;;;;;;;;;5008388;28;20134;-67
2021/01/08 06:21:12;;;;;;;1.92;0.68;;;;;;;;;;5002911;28;20050;-68
2021/01/08 06:23:41;;;;;;;0.75;0.70;;;;;;;;;;5002599;28;20458;-67
2021/01/08 06:26:09;;;;;;;0.68;0.60;;;;;;;;;;4999116;28;20180;-65
2021/01/08 06:28:38;;;;;;;1.02;0.93;;;;;;;;;;5001599;28;20117;-65
2021/01/08 06:31:06;;;;;;;0.65;0.65;;;;;;;;;;5001260;28;20105;-66
2021/01/08 06:33:35;;;;;;;1.00;0.82;;;;;;;;;;5002409;28;20034;-66
2021/01/08 06:36:14;;;;;;;0.57;0.57;;;;;;;;;;5003869;28;20113;-69
2021/01/08 06:39:03;;;;;;;0.82;0.70;;;;;;;;;;5004516;28;21521;-66
2021/01/08 06:41:29;;;;;;;0.70;0.70;;;;;;;;;;5007163;28;20042;-67
2021/01/08 06:43:59;;;;;;;1.05;0.80;;;;;;;;;;5003325;28;20037;-66
2021/01/08 06:46:27;;;;;;;0.80;0.70;;;;;;;;;;5007595;28;20095;-67
2021/01/08 06:48:55;;;;;;;0.70;0.60;;;;;;;;;;5013038;28;20080;-69
2021/01/08 06:51:26;;;;;;;0.80;0.80;;;;;;;;;;5007104;28;20046;-65
2021/01/08 06:53:55;;;;;;;2.65;1.00;;;;;;;;;;5012987;28;20442;-68
2021/01/08 06:56:27;;;;;;;2.20;0.80;;;;;;;;;;5004612;28;20100;-66
2021/01/08 06:58:55;;;;;;;0.45;0.45;;;;;;;;;;5003714;28;20030;-69
2021/01/08 07:01:24;;;;;;;1.15;0.90;;;;;;;;;;5009218;28;20038;-66
2021/01/08 07:03:51;;;;;;;1.95;0.70;;;;;;;;;;5019321;28;20142;-66
2021/01/08 07:06:18;;;;;;;2.38;0.88;;;;;;;;;;5011174;28;20330;-67
2021/01/08 07:08:44;;;;;;;1.27;0.77;;;;;;;;;;5003451;28;20073;-67
2021/01/08 07:11:21;;;;;;;0.80;0.80;;;;;;;;;;5006747;28;20451;-68
2021/01/08 07:13:48;;;;;;;0.80;0.80;;;;;;;;;;5004625;28;20040;-67
2021/01/08 07:16:19;;;;;;;1.67;0.90;;;;;;;;;;5004590;28;20030;-67
2021/01/08 07:18:46;;;;;;;0.70;0.70;;;;;;;;;;5006028;28;20151;-66
2021/01/08 07:21:22;;;;;;;0.70;0.70;;;;;;;;;;5002621;28;20041;-68
2021/01/08 07:23:49;;;;;;;;;;;;;;;;;;5011015;28;20144;-69
2021/01/08 07:26:18;;;;;;;2.70;0.97;;;;;;;;;;5005915;28;19966;-68
2021/01/08 07:28:48;;;;;;;2.60;1.00;;;;;;;;;;5008887;28;20428;-68
2021/01/08 07:31:35;;;;;;;6.35;1.00;;;;;;;;;;5005574;28;20181;-68
2021/01/08 07:34:02;;;;;;;5.15;1.40;;;;;;;;;;5003122;28;20084;-69
2021/01/08 07:36:29;;;;;;;6.07;1.13;;;;;;;;;;5005961;28;20067;-68
2021/01/08 07:39:39;;;;;;;9.13;1.65;;;;;;;;;;5011226;28;20049;-67
2021/01/08 07:42:32;;;;;;;4.55;1.02;;;;;;;;;;5006110;28;20042;-70
2021/01/08 07:44:59;;;;;;;7.20;1.38;;;;;;;;;;4999657;28;20045;-69
2021/01/08 07:47:26;;;;;;;4.65;1.50;;;;;;;;;;5002490;28;20034;-68
2021/01/08 07:50:09;;;;;;;6.30;1.40;;;;;;;;;;5004358;28;20031;-70
2021/01/08 07:52:39;;;;;;;3.08;1.13;;;;;;;;;;4998763;28;20046;-69
2021/01/08 07:55:06;;;;;;;4.65;1.13;;;;;;;;;;5002784;28;20415;-69
2021/01/08 07:57:52;;;;;;;4.60;1.30;;;;;;;;;;5004680;28;20462;-67
2021/01/08 08:00:40;;;;;;;6.38;1.55;;;;;;;;;;5065348;28;20125;-73
2021/01/08 08:03:26;;;;;;;13.18;1.83;;;;;;;;;;5005966;28;20079;-68
2021/01/08 08:05:53;;;;;;;3.78;1.30;;;;;;;;;;5004356;28;20056;-68
2021/01/08 08:08:19;;;;;;;14.70;1.80;;;;;;;;;;5000413;28;20080;-68
2021/01/08 08:10:46;;;;;;;7.20;1.48;;;;;;;;;;5006885;28;21703;-69
2021/01/08 08:13:13;;;;;;;2.47;1.30;;;;;;;;;;5006034;28;20031;-70
2021/01/08 08:15:46;;;;;;;6.10;1.50;;;;;;;;;;5005963;28;20121;-69
2021/01/08 08:18:13;;;;;;;4.45;1.17;;;;;;;;;;5005360;28;20034;-69
2021/01/08 08:20:39;;;;;;;7.88;1.45;;;;;;;;;;5001305;28;20395;-68
2021/01/08 08:23:15;;;;;;;6.68;1.50;;;;;;;;;;5004278;28;20038;-69
2021/01/08 08:25:42;;;;;;;5.60;1.30;;;;;;;;;;4999359;28;20042;-66
2021/01/08 08:28:09;;;;;;;3.38;1.45;;;;;;;;;;4991743;28;20538;-68
2021/01/08 08:30:35;;;;;;;5.00;1.50;;;;;;;;;;4996762;28;20043;-68
2021/01/08 08:33:04;;;;;;;4.07;1.48;;;;;;;;;;4999457;28;20136;-68
2021/01/08 08:35:34;;;;;;;3.08;1.23;;;;;;;;;;5002179;28;20035;-68
2021/01/08 08:38:00;;;;;;;3.58;1.60;;;;;;;;;;5003010;28;20080;-68
2021/01/08 08:40:27;;;;;;;2.88;1.35;;;;;;;;;;5005175;28;20195;-69
2021/01/08 08:42:55;;;;;;;4.88;1.42;;;;;;;;;;5002780;28;20038;-68
2021/01/08 08:45:22;;;;;;;5.57;1.77;;;;;;;;;;4999044;28;20052;-70
2021/01/08 08:47:50;;;;;;;2.00;1.30;;;;;;;;;;4999548;28;20049;-68
2021/01/08 08:50:17;;;;;;;4.55;1.20;;;;;;;;;;5004459;28;20069;-69
2021/01/08 08:52:45;;;;;;;3.85;1.48;;;;;;;;;;5001691;28;20404;-69
2021/01/08 08:55:34;;;;;;;2.28;1.20;;;;;;;;;;5009270;28;20128;-68
2021/01/08 08:58:01;;;;;;;3.70;1.50;;;;;;;;;;5001837;28;20045;-70
2021/01/08 09:00:27;;;;;;;3.10;1.20;;;;;;;;;;4998988;28;20121;-68
2021/01/08 09:02:54;;;;;;;2.50;1.27;;;;;;;;;;5000274;28;20061;-67
2021/01/08 09:05:20;;;;;;;3.03;0.93;;;;;;;;;;5001819;28;20114;-68
2021/01/08 09:07:53;;;;;;;3.78;1.20;;;;;;;;;;4999481;28;20039;-68
2021/01/08 09:10:22;;;;;;;3.45;1.35;;;;;;;;;;5009132;28;20170;-68
2021/01/08 09:13:00;;;;;;;1.92;1.10;;;;;;;;;;5016122;28;20031;-69
2021/01/08 09:15:30;;;;;;;1.80;1.20;;;;;;;;;;5006731;28;20030;-68
2021/01/08 09:18:02;;;;;;;1.27;0.90;;;;;;;;;;5009203;28;20042;-69
2021/01/08 09:20:29;;;;;;;3.53;1.35;;;;;;;;;;5012087;28;20500;-67
2021/01/08 09:22:56;;;;;;;4.13;1.05;;;;;;;;;;5102025;27;20045;-70
2021/01/08 09:25:23;;;;;;;6.18;1.40;;;;;;;;;;5009587;28;20039;-67
2021/01/08 09:27:50;;;;;;;6.22;1.42;;;;;;;;;;5093631;27;20058;-67
2021/01/08 09:30:16;;;;;;;4.95;1.17;;;;;;;;;;5007007;28;20430;-68
2021/01/08 09:32:43;;;;;;;4.43;1.25;;;;;;;;;;5008356;28;20050;-69
2021/01/08 09:35:10;;;;;;;1.75;1.10;;;;;;;;;;5010548;28;20041;-69
2021/01/08 09:37:38;;;;;;;3.78;1.25;;;;;;;;;;5004009;28;20510;-67
2021/01/08 09:40:11;;;;;;;3.67;1.10;;;;;;;;;;5005974;28;20060;-69
2021/01/08 09:42:38;;;;;;;1.98;1.00;;;;;;;;;;5004819;28;20043;-69
2021/01/08 09:45:24;;;;;;;2.85;1.10;;;;;;;;;;5000778;28;20076;-68
2021/01/08 09:47:51;;;;;;;3.42;1.30;;;;;;;;;;5002861;28;20550;-68
2021/01/08 09:50:29;;;;;;;2.53;1.10;;;;;;;;;;5003817;28;20113;-69
2021/01/08 09:52:59;;;;;;;2.33;1.02;;;;;;;;;;5008059;28;20102;-68
2021/01/08 09:55:27;;;;;;;0.98;0.88;;;;;;;;;;5006009;28;21469;-67
2021/01/08 09:57:54;;;;;;;3.35;1.10;;;;;;;;;;5002657;28;20137;-69
2021/01/08 10:00:26;;;;;;;3.53;1.05;;;;;;;;;;5002931;28;20072;-69
2021/01/08 10:02:53;;;;;;;2.80;1.15;;;;;;;;;;5001737;28;20117;-67
2021/01/08 10:05:27;;;;;;;1.65;1.20;;;;;;;;;;5032613;28;20038;-67
2021/01/08 10:07:54;;;;;;;2.42;1.13;;;;;;;;;;5002619;28;20034;-70
2021/01/08 10:10:35;;;;;;;2.13;1.17;;;;;;;;;;5100201;27;20125;-69
2021/01/08 10:13:02;;;;;;;4.00;1.23;;;;;;;;;;5097769;27;20107;-68
2021/01/08 10:15:35;;;;;;;1.83;1.10;;;;;;;;;;5006284;28;20129;-70
2021/01/08 10:18:10;;;;;;;1.55;0.80;;;;;;;;;;5009781;28;20038;-68
2021/01/08 10:20:42;;;;;;;3.13;1.00;;;;;;;;;;5005493;28;20083;-67
2021/01/08 10:23:10;;;;;;;2.78;0.95;;;;;;;;;;5094815;27;20074;-70
2021/01/08 10:25:37;;;;;;;3.28;1.25;;;;;;;;;;5000304;28;20043;-68
2021/01/08 10:28:11;;;;;;;1.23;0.90;;;;;;;;;;5010085;28;20041;-67
2021/01/08 10:30:38;;;;;;;1.85;1.02;;;;;;;;;;5011139;28;20042;-68
2021/01/08 10:33:04;;;;;;;1.98;1.00;;;;;;;;;;5011420;28;20070;-68
2021/01/08 10:35:31;;;;;;;1.75;1.13;;;;;;;;;;5005198;28;20037;-68
2021/01/08 10:37:57;;;;;;;1.65;1.02;;;;;;;;;;5004464;28;20684;-66
2021/01/08 10:40:23;;;;;;;1.40;0.93;;;;;;;;;;5005194;28;20101;-69
2021/01/08 10:42:51;;;;;;;8.05;1.00;;;;;;;;;;5000212;28;20494;-67
2021/01/08 10:45:18;;;;;;;1.15;0.90;;;;;;;;;;5091718;27;20214;-68
2021/01/08 10:47:44;;;;;;;3.55;1.10;;;;;;;;;;5004030;28;20043;-69
2021/01/08 10:50:12;;;;;;;61.42;15.93;;;;;;;;;;5008077;28;20054;-69
2021/01/08 10:52:39;;;;;;;57.00;16.60;;;;;;;;;;5006377;28;20086;-69
2021/01/08 10:55:06;;;;;;;19.60;6.88;;;;;;;;;;5002380;28;20137;-70
2021/01/08 10:57:32;;;;;;;17.75;5.28;;;;;;;;;;5002273;28;20614;-69
2021/01/08 10:59:59;;;;;;;12.77;5.03;;;;;;;;;;5006811;28;20037;-67
2021/01/08 11:02:25;;;;;;;13.77;4.13;;;;;;;;;;5009222;28;20038;-69
2021/01/08 11:04:52;;;;;;;10.95;3.65;;;;;;;;;;5005985;28;20038;-69
2021/01/08 11:07:18;;;;;;;16.25;4.07;;;;;;;;;;5091374;27;20071;-70
2021/01/08 11:09:44;;;;;;;11.57;4.13;;;;;;;;;;5005610;28;20109;-69
2021/01/08 11:12:11;;;;;;;13.48;4.35;;;;;;;;;;5012424;28;20037;-70
2021/01/08 11:14:37;;;;;;;13.63;3.97;;;;;;;;;;5007484;28;20194;-70
2021/01/08 11:17:03;;;;;;;9.48;3.53;;;;;;;;;;4999119;28;20126;-68
2021/01/08 11:19:30;;;;;;;12.35;3.63;;;;;;;;;;5002727;28;20069;-69
2021/01/08 11:21:56;;;;;;;13.85;3.70;;;;;;;;;;5007950;28;20048;-68
2021/01/08 11:24:22;;;;;;;9.02;3.38;;;;;;;;;;5008005;28;20128;-70
2021/01/08 11:26:49;;;;;;;13.05;3.38;;;;;;;;;;5005984;28;20058;-70
2021/01/08 11:29:15;;;;;;;10.35;3.38;;;;;;;;;;5002877;28;20039;-70
2021/01/08 11:31:42;;;;;;;10.68;3.13;;;;;;;;;;5002561;28;20041;-70
2021/01/08 11:34:09;;;;;;;11.10;3.50;;;;;;;;;;5075057;28;20037;-69
2021/01/08 11:36:36;;;;;;;8.60;3.05;;;;;;;;;;5003957;28;20091;-68
2021/01/08 11:39:03;;;;;;;14.18;3.22;;;;;;;;;;5004871;28;20044;-70
2021/01/08 11:41:30;;;;;;;11.05;2.90;;;;;;;;;;5091759;27;20046;-69
2021/01/08 11:43:56;;;;;;;9.02;2.70;;;;;;;;;;4998470;28;20125;-68
2021/01/08 11:46:24;;;;;;;9.75;3.40;;;;;;;;;;4996318;28;20149;-69
2021/01/08 11:48:52;;;;;;;12.07;3.05;;;;;;;;;;4997873;28;20535;-68
2021/01/08 11:51:20;;;;;;;6.93;2.92;;;;;;;;;;4999996;28;20060;-67
2021/01/08 11:53:48;;;;;;;10.63;3.00;;;;;;;;;;5094252;27;20042;-69
2021/01/08 11:56:14;;;;;;;10.95;3.10;;;;;;;;;;5000066;28;20125;-70
2021/01/08 11:58:41;;;;;;;8.50;3.47;;;;;;;;;;4999526;28;20042;-68
2021/01/08 12:01:08;;;;;;;8.52;3.10;;;;;;;;;;4998835;28;20179;-67
2021/01/08 12:03:37;;;;;;;32.38;16.15;;;;;;;;;;4997759;28;20098;-72
2021/01/08 12:06:04;;;;;;;49.60;42.13;;;;;;;;;;5000458;28;20042;-72
2021/01/08 12:08:31;;;;;;;32.80;24.30;;;;;;;;;;4999066;28;20038;-70
2021/01/08 12:10:58;;;;;;;34.25;20.25;;;;;;;;;;4996381;28;20497;-68
2021/01/08 12:13:25;;;;;;;22.48;16.95;;;;;;;;;;5000445;28;20504;-70
2021/01/08 12:15:52;;;;;;;29.48;17.42;;;;;;;;;;5091199;28;20393;-72
2021/01/08 12:18:18;;;;;;;23.40;16.63;;;;;;;;;;5000207;28;20125;-69
2021/01/08 12:20:45;;;;;;;26.73;17.65;;;;;;;;;;4998396;28;20050;-72
2021/01/08 12:23:12;;;;;;;27.10;17.17;;;;;;;;;;5000054;28;20053;-71
2021/01/08 12:25:39;;;;;;;22.98;17.10;;;;;;;;;;5096419;28;20041;-69
2021/01/08 12:28:06;;;;;;;27.05;15.82;;;;;;;;;;5096060;28;20038;-71
2021/01/08 12:30:32;;;;;;;24.88;15.93;;;;;;;;;;4996225;28;20039;-68
2021/01/08 12:33:00;;;;;;;22.67;15.00;;;;;;;;;;5005399;28;20046;-73
2021/01/08 12:35:26;;;;;;;22.35;14.88;;;;;;;;;;5003636;28;20069;-70
2021/01/08 12:37:53;;;;;;;21.40;14.55;;;;;;;;;;4997983;28;20117;-69
2021/01/08 12:40:20;;;;;;;23.83;15.32;;;;;;;;;;4999829;28;20552;-72
2021/01/08 12:42:47;;;;;;;23.33;14.65;;;;;;;;;;5003287;28;20497;-72
2021/01/08 12:45:14;;;;;;;19.83;14.85;;;;;;;;;;4999520;28;20065;-66
2021/01/08 12:47:41;;;;;;;18.00;13.55;;;;;;;;;;5096211;27;20039;-72
2021/01/08 12:50:08;;;;;;;20.48;13.68;;;;;;;;;;5001862;28;20477;-68
2021/01/08 12:52:34;;;;;;;20.45;13.57;;;;;;;;;;5100209;27;20073;-68
2021/01/08 12:55:01;;;;;;;21.88;13.98;;;;;;;;;;4998153;28;20038;-72
2021/01/08 12:57:28;;;;;;;19.83;13.57;;;;;;;;;;5009481;28;20091;-70
2021/01/08 12:59:55;;;;;;;23.30;12.63;;;;;;;;;;5003566;28;20048;-70
2021/01/08 13:02:21;;;;;;;24.85;12.90;;;;;;;;;;5095511;27;20045;-68
2021/01/08 13:04:48;;;;;;;17.13;12.25;;;;;;;;;;5004672;28;20041;-73
2021/01/08 13:07:14;;;;;;;21.58;12.15;;;;;;;;;;5003090;28;20038;-71
2021/01/08 13:09:41;;;;;;;21.08;12.27;;;;;;;;;;5001660;28;20038;-70
2021/01/08 13:12:08;;;;;;;24.95;12.40;;;;;;;;;;5002642;28;20040;-67
2021/01/08 13:14:34;;;;;;;25.75;10.80;;;;;;;;;;5000245;28;20042;-69
2021/01/08 13:17:00;;;;;;;27.45;11.43;;;;;;;;;;5001254;28;20042;-70
2021/01/08 13:19:28;;;;;;;26.48;11.50;;;;;;;;;;5016360;28;20080;-68
2021/01/08 13:21:55;;;;;;;26.70;11.02;;;;;;;;;;5096466;27;20067;-69
2021/01/08 13:24:22;;;;;;;20.13;10.85;;;;;;;;;;5004720;28;20030;-69
2021/01/08 13:26:48;;;;;;;20.25;10.70;;;;;;;;;;4999973;28;20042;-67
2021/01/08 13:29:15;;;;;;;15.73;10.05;;;;;;;;;;4999683;28;20070;-67
2021/01/08 13:31:44;;;;;;;20.08;9.15;;;;;;;;;;5096766;27;20068;-70
2021/01/08 13:34:11;;;;;;;18.25;9.20;;;;;;;;;;5003186;28;20121;-69
2021/01/08 13:36:37;;;;;;;25.75;9.15;;;;;;;;;;5001847;28;20441;-68
2021/01/08 13:39:04;;;;;;;25.63;9.25;;;;;;;;;;5000227;28;20041;-68
2021/01/08 13:41:31;;;;;;;19.75;8.88;;;;;;;;;;5001701;28;20466;-69
2021/01/08 13:43:57;;;;;;;17.35;8.20;;;;;;;;;;5001799;28;20034;-68
2021/01/08 13:46:23;;;;;;;16.40;8.13;;;;;;;;;;5000758;28;20049;-68
2021/01/08 13:48:50;;;;;;;16.30;7.93;;;;;;;;;;5001564;28;20052;-69
2021/01/08 13:51:17;;;;;;;12.30;6.90;;;;;;;;;;5004269;28;20085;-67
2021/01/08 13:53:43;;;;;;;15.48;7.38;;;;;;;;;;5092733;27;20373;-70
2021/01/08 13:56:15;;;;;;;15.95;7.20;;;;;;;;;;5000784;28;20729;-68
2021/01/08 13:58:41;;;;;;;13.48;7.63;;;;;;;;;;5093788;27;20145;-68
2021/01/08 14:01:07;;;;;;;16.95;6.63;;;;;;;;;;4982630;28;20038;-70
2021/01/08 14:03:34;;;;;;;11.88;6.50;;;;;;;;;;4997682;28;20385;-70
2021/01/08 14:06:00;;;;;;;16.60;6.53;;;;;;;;;;5002843;28;20449;-68
2021/01/08 14:08:26;;;;;;;10.27;5.95;;;;;;;;;;4998773;28;20042;-70
2021/01/08 14:10:53;;;;;;;12.30;6.20;;;;;;;;;;4999562;28;20132;-67
2021/01/08 14:13:19;;;;;;;13.15;7.07;;;;;;;;;;5004085;28;20034;-70
2021/01/08 14:15:45;;;;;;;10.50;5.90;;;;;;;;;;5001205;28;20038;-70
2021/01/08 14:18:11;;;;;;;11.60;5.80;;;;;;;;;;5095970;27;20048;-70
2021/01/08 14:20:38;;;;;;;9.70;5.93;;;;;;;;;;5002517;28;20048;-69
2021/01/08 14:23:04;;;;;;;11.45;5.72;;;;;;;;;;5001964;28;20041;-70
2021/01/08 14:25:30;;;;;;;10.88;5.70;;;;;;;;;;5091002;27;20073;-69
2021/01/08 14:27:57;;;;;;;10.27;5.55;;;;;;;;;;5002070;28;20034;-67
2021/01/08 14:30:23;;;;;;;8.02;5.00;;;;;;;;;;5001199;28;20038;-69
2021/01/08 14:32:50;;;;;;;8.65;5.00;;;;;;;;;;4999349;28;20034;-67
2021/01/08 14:35:16;;;;;;;8.13;5.00;;;;;;;;;;5000831;28;20501;-70
2021/01/08 14:37:44;;;;;;;10.05;4.63;;;;;;;;;;4999146;28;20168;-71
2021/01/08 14:40:11;;;;;;;8.48;4.68;;;;;;;;;;4999915;28;20094;-70
2021/01/08 14:42:37;;;;;;;9.00;3.92;;;;;;;;;;4999528;28;20053;-71